sensor_id;sensor_type;location;lat;lon;timestamp;pressure;altitude;pressure_sealevel;temperature;humidity
28354;BME280;15603;50.878;8.036;2023-04-24T00:02:01;145735.78;;;10.46;100.00
28354;BME280;15603;50.878;8.036;2023-04-24T00:04:28;145752.81;;;10.53;100.00
28354;BME280;15603;50.878;8.036;2023-04-24T00:06:55;145772.25;;;10.61;100.00
28354;BME280;15603;50.878;8.036;2023-04-24T00:09:23;145767.41;;;10.59;100.00
28354;BME280;15603;50.878;8.036;2023-04-24T00:11:51;145740.66;;;10.48;100.00
28354;BME280;15603;50.878;8.036;2023-04-24T00:14:18;145740.66;;;10.48;100.00
28354;BME280;15603;50.878;8.036;2023-04-24T00:16:46;145796.56;;;10.71;100.00
28354;BME280;15603;50.878;8.036;2023-04-24T00:19:13;145784.38;;;10.66;100.00
28354;BME280;15603;50.878;8.036;2023-04-24T00:21:40;145752.81;;;10.53;100.00
28354;BME280;15603;50.878;8.036;2023-04-24T00:24:08;145752.81;;;10.53;100.00
28354;BME280;15603;50.878;8.036;2023-04-24T00:26:38;145813.59;;;10.78;100.00
28354;BME280;15603;50.878;8.036;2023-04-24T00:29:05;145774.66;;;10.62;100.00
28354;BME280;15603;50.878;8.036;2023-04-24T00:31:32;145784.38;;;10.66;100.00
28354;BME280;15603;50.878;8.036;2023-04-24T00:34:02;145783.19;;;10.66;100.00
28354;BME280;15603;50.878;8.036;2023-04-24T00:36:30;145791.69;;;10.69;100.00
28354;BME280;15603;50.878;8.036;2023-04-24T00:38:57;145822.09;;;10.82;100.00
28354;BME280;15603;50.878;8.036;2023-04-24T00:41:24;145809.94;;;10.77;100.00
28354;BME280;15603;50.878;8.036;2023-04-24T00:43:52;145747.97;;;10.51;100.00
28354;BME280;15603;50.878;8.036;2023-04-24T00:46:20;145786.84;;;10.67;100.00
28354;BME280;15603;50.878;8.036;2023-04-24T00:48:48;145792.91;;;10.70;100.00
28354;BME280;15603;50.878;8.036;2023-04-24T00:51:15;145777.13;;;10.63;100.00
28354;BME280;15603;50.878;8.036;2023-04-24T00:53:42;145808.72;;;10.76;100.00
28354;BME280;15603;50.878;8.036;2023-04-24T00:56:09;145772.25;;;10.61;100.00
28354;BME280;15603;50.878;8.036;2023-04-24T00:58:37;145833.03;;;10.87;100.00
28354;BME280;15603;50.878;8.036;2023-04-24T01:01:04;145779.53;;;10.64;100.00
28354;BME280;15603;50.878;8.036;2023-04-24T01:03:34;145784.38;;;10.66;100.00
28354;BME280;15603;50.878;8.036;2023-04-24T01:06:05;145816.00;;;10.79;100.00
28354;BME280;15603;50.878;8.036;2023-04-24T01:08:32;145822.09;;;10.82;100.00
28354;BME280;15603;50.878;8.036;2023-04-24T01:11:03;145757.69;;;10.55;100.00
28354;BME280;15603;50.878;8.036;2023-04-24T01:13:32;145696.84;;;10.29;100.00
28354;BME280;15603;50.878;8.036;2023-04-24T01:16:00;145785.63;;;10.67;100.00
28354;BME280;15603;50.878;8.036;2023-04-24T01:18:28;145795.34;;;10.71;100.00
28354;BME280;15603;50.878;8.036;2023-04-24T01:20:59;145755.22;;;10.54;100.00
28354;BME280;15603;50.878;8.036;2023-04-24T01:23:26;145706.59;;;10.33;100.00
28354;BME280;15603;50.878;8.036;2023-04-24T01:25:54;145715.13;;;10.37;100.00
28354;BME280;15603;50.878;8.036;2023-04-24T01:28:21;145631.25;;;10.01;100.00
28354;BME280;15603;50.878;8.036;2023-04-24T01:30:49;145643.41;;;10.07;100.00
28354;BME280;15603;50.878;8.036;2023-04-24T01:33:17;145587.50;;;9.83;100.00
28354;BME280;15603;50.878;8.036;2023-04-24T01:35:44;145628.78;;;10.00;100.00
28354;BME280;15603;50.878;8.036;2023-04-24T01:38:11;145645.81;;;10.08;100.00
28354;BME280;15603;50.878;8.036;2023-04-24T01:40:38;145591.13;;;9.85;100.00
28354;BME280;15603;50.878;8.036;2023-04-24T01:43:06;145617.88;;;9.96;100.00
28354;BME280;15603;50.878;8.036;2023-04-24T01:45:33;145622.72;;;9.98;100.00
28354;BME280;15603;50.878;8.036;2023-04-24T01:48:03;145605.72;;;9.91;100.00
28354;BME280;15603;50.878;8.036;2023-04-24T01:50:31;145660.38;;;10.14;100.00
28354;BME280;15603;50.878;8.036;2023-04-24T01:52:58;145620.31;;;9.97;100.00
28354;BME280;15603;50.878;8.036;2023-04-24T01:55:25;145628.78;;;10.00;100.00
28354;BME280;15603;50.878;8.036;2023-04-24T01:57:55;145661.63;;;10.14;100.00
28354;BME280;15603;50.878;8.036;2023-04-24T02:00:23;145670.09;;;10.18;100.00
28354;BME280;15603;50.878;8.036;2023-04-24T02:02:52;145685.91;;;10.25;100.00
28354;BME280;15603;50.878;8.036;2023-04-24T02:05:20;145654.31;;;10.11;100.00
28354;BME280;15603;50.878;8.036;2023-04-24T02:07:47;145568.06;;;9.75;100.00
28354;BME280;15603;50.878;8.036;2023-04-24T02:10:14;145670.09;;;10.18;100.00
28354;BME280;15603;50.878;8.036;2023-04-24T02:12:42;145661.63;;;10.14;100.00
28354;BME280;15603;50.878;8.036;2023-04-24T02:15:09;145650.66;;;10.10;100.00
28354;BME280;15603;50.878;8.036;2023-04-24T02:17:37;145691.97;;;10.27;100.00
28354;BME280;15603;50.878;8.036;2023-04-24T02:20:06;145665.25;;;10.16;100.00
28354;BME280;15603;50.878;8.036;2023-04-24T02:22:33;145591.13;;;9.85;100.00
28354;BME280;15603;50.878;8.036;2023-04-24T02:25:01;145688.31;;;10.26;100.00
28354;BME280;15603;50.878;8.036;2023-04-24T02:27:29;145623.94;;;9.98;100.00
28354;BME280;15603;50.878;8.036;2023-04-24T02:29:56;145606.97;;;9.91;100.00
28354;BME280;15603;50.878;8.036;2023-04-24T02:32:23;145619.06;;;9.96;100.00
28354;BME280;15603;50.878;8.036;2023-04-24T02:34:50;145572.91;;;9.77;100.00
28354;BME280;15603;50.878;8.036;2023-04-24T02:37:17;145599.66;;;9.88;100.00
28354;BME280;15603;50.878;8.036;2023-04-24T02:39:44;145614.22;;;9.94;100.00
28354;BME280;15603;50.878;8.036;2023-04-24T02:42:11;145631.25;;;10.01;100.00
28354;BME280;15603;50.878;8.036;2023-04-24T02:44:38;145623.94;;;9.98;100.00
28354;BME280;15603;50.878;8.036;2023-04-24T02:47:06;145642.16;;;10.06;100.00
28354;BME280;15603;50.878;8.036;2023-04-24T02:49:34;145623.94;;;9.98;100.00
28354;BME280;15603;50.878;8.036;2023-04-24T02:52:01;145640.97;;;10.06;100.00
28354;BME280;15603;50.878;8.036;2023-04-24T02:54:28;145603.31;;;9.90;100.00
28354;BME280;15603;50.878;8.036;2023-04-24T02:56:55;145644.63;;;10.07;100.00
28354;BME280;15603;50.878;8.036;2023-04-24T02:59:23;145604.50;;;9.90;100.00
28354;BME280;15603;50.878;8.036;2023-04-24T03:01:50;145636.09;;;10.03;100.00
28354;BME280;15603;50.878;8.036;2023-04-24T03:04:17;145565.66;;;9.74;100.00
28354;BME280;15603;50.878;8.036;2023-04-24T03:06:48;145572.91;;;9.77;100.00
28354;BME280;15603;50.878;8.036;2023-04-24T03:09:15;145602.09;;;9.89;100.00
28354;BME280;15603;50.878;8.036;2023-04-24T03:11:42;145578.97;;;9.79;100.00
28354;BME280;15603;50.878;8.036;2023-04-24T03:14:09;145577.78;;;9.79;100.00
28354;BME280;15603;50.878;8.036;2023-04-24T03:16:37;145519.47;;;9.54;100.00
28354;BME280;15603;50.878;8.036;2023-04-24T03:19:06;145450.25;;;9.25;100.00
28354;BME280;15603;50.878;8.036;2023-04-24T03:21:39;145492.78;;;9.43;100.00
28354;BME280;15603;50.878;8.036;2023-04-24T03:24:08;145475.78;;;9.36;100.00
28354;BME280;15603;50.878;8.036;2023-04-24T03:26:37;145434.47;;;9.18;100.00
28354;BME280;15603;50.878;8.036;2023-04-24T03:29:16;145441.75;;;9.21;100.00
28354;BME280;15603;50.878;8.036;2023-04-24T03:31:44;145480.63;;;9.38;100.00
28354;BME280;15603;50.878;8.036;2023-04-24T03:34:11;145405.31;;;9.06;100.00
28354;BME280;15603;50.878;8.036;2023-04-24T03:36:38;145476.97;;;9.36;100.00
28354;BME280;15603;50.878;8.036;2023-04-24T03:39:07;145422.31;;;9.13;100.00
28354;BME280;15603;50.878;8.036;2023-04-24T03:41:36;145432.03;;;9.17;100.00
28354;BME280;15603;50.878;8.036;2023-04-24T03:44:09;145427.19;;;9.15;100.00
28354;BME280;15603;50.878;8.036;2023-04-24T03:46:37;145384.69;;;8.97;100.00
28354;BME280;15603;50.878;8.036;2023-04-24T03:49:04;145359.19;;;8.87;100.00
28354;BME280;15603;50.878;8.036;2023-04-24T03:51:35;145330.06;;;8.74;100.00
28354;BME280;15603;50.878;8.036;2023-04-24T03:54:10;145282.72;;;8.54;100.00
28354;BME280;15603;50.878;8.036;2023-04-24T03:56:39;145313.06;;;8.67;100.00
28354;BME280;15603;50.878;8.036;2023-04-24T03:59:06;145225.66;;;8.30;100.00
28354;BME280;15603;50.878;8.036;2023-04-24T04:01:36;145305.78;;;8.64;100.00
28354;BME280;15603;50.878;8.036;2023-04-24T04:04:13;145288.81;;;8.57;100.00
28354;BME280;15603;50.878;8.036;2023-04-24T04:06:43;145265.75;;;8.47;100.00
28354;BME280;15603;50.878;8.036;2023-04-24T04:09:11;145291.22;;;8.58;100.00
28354;BME280;15603;50.878;8.036;2023-04-24T04:11:38;145228.06;;;8.31;100.00
28354;BME280;15603;50.878;8.036;2023-04-24T04:14:05;145334.94;;;8.76;100.00
28354;BME280;15603;50.878;8.036;2023-04-24T04:16:34;145347.09;;;8.81;100.00
28354;BME280;15603;50.878;8.036;2023-04-24T04:19:04;145317.91;;;8.69;100.00
28354;BME280;15603;50.878;8.036;2023-04-24T04:21:32;145347.09;;;8.81;100.00
28354;BME280;15603;50.878;8.036;2023-04-24T04:24:10;145280.31;;;8.53;100.00
28354;BME280;15603;50.878;8.036;2023-04-24T04:26:41;145279.09;;;8.53;100.00
28354;BME280;15603;50.878;8.036;2023-04-24T04:29:22;145254.78;;;8.42;100.00
28354;BME280;15603;50.878;8.036;2023-04-24T04:31:50;145213.50;;;8.25;100.00
28354;BME280;15603;50.878;8.036;2023-04-24T04:34:17;145245.06;;;8.38;100.00
28354;BME280;15603;50.878;8.036;2023-04-24T04:36:45;145196.50;;;8.18;100.00
28354;BME280;15603;50.878;8.036;2023-04-24T04:39:36;145201.41;;;8.20;100.00
28354;BME280;15603;50.878;8.036;2023-04-24T04:42:09;145162.53;;;8.03;100.00
28354;BME280;15603;50.878;8.036;2023-04-24T04:44:41;145266.94;;;8.48;100.00
28354;BME280;15603;50.878;8.036;2023-04-24T04:47:14;145279.09;;;8.53;100.00
28354;BME280;15603;50.878;8.036;2023-04-24T04:49:41;145274.25;;;8.51;100.00
28354;BME280;15603;50.878;8.036;2023-04-24T04:52:18;145283.97;;;8.55;100.00
28354;BME280;15603;50.878;8.036;2023-04-24T04:54:48;145298.50;;;8.61;98.55
28354;BME280;15603;50.878;8.036;2023-04-24T04:57:16;145325.22;;;8.72;100.00
28354;BME280;15603;50.878;8.036;2023-04-24T04:59:43;145276.66;;;8.52;100.00
28354;BME280;15603;50.878;8.036;2023-04-24T05:02:19;145298.50;;;8.61;100.00
28354;BME280;15603;50.878;8.036;2023-04-24T05:04:46;145263.31;;;8.46;100.00
28354;BME280;15603;50.878;8.036;2023-04-24T05:07:14;145288.81;;;8.57;100.00
28354;BME280;15603;50.878;8.036;2023-04-24T05:09:46;145291.22;;;8.58;100.00
28354;BME280;15603;50.878;8.036;2023-04-24T05:12:13;145292.47;;;8.58;100.00
28354;BME280;15603;50.878;8.036;2023-04-24T05:14:48;145269.34;;;8.49;100.00
28354;BME280;15603;50.878;8.036;2023-04-24T05:17:15;145296.06;;;8.60;100.00
28354;BME280;15603;50.878;8.036;2023-04-24T05:19:44;145259.66;;;8.44;100.00
28354;BME280;15603;50.878;8.036;2023-04-24T05:22:13;145239.00;;;8.36;100.00
28354;BME280;15603;50.878;8.036;2023-04-24T05:24:47;145315.50;;;8.68;100.00
28354;BME280;15603;50.878;8.036;2023-04-24T05:27:33;145270.59;;;8.49;100.00
28354;BME280;15603;50.878;8.036;2023-04-24T05:30:03;145359.19;;;8.87;100.00
28354;BME280;15603;50.878;8.036;2023-04-24T05:32:31;145368.91;;;8.91;100.00
28354;BME280;15603;50.878;8.036;2023-04-24T05:34:58;145345.84;;;8.81;100.00
28354;BME280;15603;50.878;8.036;2023-04-24T05:37:25;145347.09;;;8.81;100.00
28354;BME280;15603;50.878;8.036;2023-04-24T05:39:52;145313.06;;;8.67;100.00
28354;BME280;15603;50.878;8.036;2023-04-24T05:42:20;145370.16;;;8.91;100.00
28354;BME280;15603;50.878;8.036;2023-04-24T05:44:47;145360.38;;;8.87;100.00
28354;BME280;15603;50.878;8.036;2023-04-24T05:47:14;145429.63;;;9.16;100.00
28354;BME280;15603;50.878;8.036;2023-04-24T05:49:41;145396.81;;;9.02;99.85
28354;BME280;15603;50.878;8.036;2023-04-24T05:52:09;145425.97;;;9.15;99.15
28354;BME280;15603;50.878;8.036;2023-04-24T05:54:38;145430.84;;;9.17;97.57
28354;BME280;15603;50.878;8.036;2023-04-24T05:57:05;145497.63;;;9.45;98.43
28354;BME280;15603;50.878;8.036;2023-04-24T05:59:48;145445.41;;;9.23;94.12
28354;BME280;15603;50.878;8.036;2023-04-24T06:02:16;145421.13;;;9.13;99.87
28354;BME280;15603;50.878;8.036;2023-04-24T06:04:44;145401.72;;;9.04;98.96
28354;BME280;15603;50.878;8.036;2023-04-24T06:07:12;145339.78;;;8.78;96.87
28354;BME280;15603;50.878;8.036;2023-04-24T06:09:41;145382.25;;;8.96;99.93
28354;BME280;15603;50.878;8.036;2023-04-24T06:12:09;145395.63;;;9.02;98.84
28354;BME280;15603;50.878;8.036;2023-04-24T06:14:50;145354.34;;;8.84;99.58
28354;BME280;15603;50.878;8.036;2023-04-24T06:17:21;145349.47;;;8.82;99.40
28354;BME280;15603;50.878;8.036;2023-04-24T06:19:49;145393.22;;;9.01;100.00
28354;BME280;15603;50.878;8.036;2023-04-24T06:22:17;145436.88;;;9.19;98.54
28354;BME280;15603;50.878;8.036;2023-04-24T06:24:44;145468.47;;;9.33;100.00
28354;BME280;15603;50.878;8.036;2023-04-24T06:27:11;145500.03;;;9.46;97.59
28354;BME280;15603;50.878;8.036;2023-04-24T06:29:41;145483.03;;;9.39;98.56
28354;BME280;15603;50.878;8.036;2023-04-24T06:32:08;145490.34;;;9.42;97.16
28354;BME280;15603;50.878;8.036;2023-04-24T06:34:36;145396.81;;;9.02;100.00
28354;BME280;15603;50.878;8.036;2023-04-24T06:37:03;145430.84;;;9.17;99.62
28354;BME280;15603;50.878;8.036;2023-04-24T06:39:30;145470.91;;;9.34;99.89
28354;BME280;15603;50.878;8.036;2023-04-24T06:41:58;145432.03;;;9.17;98.51
28354;BME280;15603;50.878;8.036;2023-04-24T06:44:25;145497.63;;;9.45;98.57
28354;BME280;15603;50.878;8.036;2023-04-24T06:46:52;145538.94;;;9.62;98.20
28354;BME280;15603;50.878;8.036;2023-04-24T06:49:19;145487.88;;;9.41;98.12
28354;BME280;15603;50.878;8.036;2023-04-24T06:51:46;145553.50;;;9.69;98.72
28354;BME280;15603;50.878;8.036;2023-04-24T06:54:13;145551.06;;;9.68;97.25
28354;BME280;15603;50.878;8.036;2023-04-24T06:56:41;145509.75;;;9.50;97.38
28354;BME280;15603;50.878;8.036;2023-04-24T06:59:08;145396.81;;;9.02;98.22
28354;BME280;15603;50.878;8.036;2023-04-24T07:01:35;145436.88;;;9.19;98.75
28354;BME280;15603;50.878;8.036;2023-04-24T07:04:02;145484.28;;;9.39;99.52
28354;BME280;15603;50.878;8.036;2023-04-24T07:06:29;145553.50;;;9.69;96.73
28354;BME280;15603;50.878;8.036;2023-04-24T07:08:58;145549.84;;;9.67;98.36
28354;BME280;15603;50.878;8.036;2023-04-24T07:11:27;145600.84;;;9.89;97.40
28354;BME280;15603;50.878;8.036;2023-04-24T07:13:56;145553.50;;;9.69;98.57
28354;BME280;15603;50.878;8.036;2023-04-24T07:16:23;145529.22;;;9.58;99.08
28354;BME280;15603;50.878;8.036;2023-04-24T07:18:50;145597.19;;;9.87;96.24
28354;BME280;15603;50.878;8.036;2023-04-24T07:21:17;145603.31;;;9.90;97.59
28354;BME280;15603;50.878;8.036;2023-04-24T07:23:44;145587.50;;;9.83;95.79
28354;BME280;15603;50.878;8.036;2023-04-24T07:26:11;145566.88;;;9.74;96.21
28354;BME280;15603;50.878;8.036;2023-04-24T07:28:38;145548.66;;;9.67;96.04
28354;BME280;15603;50.878;8.036;2023-04-24T07:31:10;145589.94;;;9.84;97.09
28354;BME280;15603;50.878;8.036;2023-04-24T07:33:38;145606.97;;;9.91;94.24
28354;BME280;15603;50.878;8.036;2023-04-24T07:36:05;145546.19;;;9.66;93.92
28354;BME280;15603;50.878;8.036;2023-04-24T07:38:32;145623.94;;;9.98;95.07
28354;BME280;15603;50.878;8.036;2023-04-24T07:40:59;145610.56;;;9.93;95.91
28354;BME280;15603;50.878;8.036;2023-04-24T07:43:26;145638.56;;;10.05;94.23
28354;BME280;15603;50.878;8.036;2023-04-24T07:45:53;145665.25;;;10.16;93.59
28354;BME280;15603;50.878;8.036;2023-04-24T07:48:21;145587.50;;;9.83;95.94
28354;BME280;15603;50.878;8.036;2023-04-24T07:50:49;145596.00;;;9.87;96.63
28354;BME280;15603;50.878;8.036;2023-04-24T07:53:16;145586.28;;;9.82;99.01
28354;BME280;15603;50.878;8.036;2023-04-24T07:55:43;145524.31;;;9.56;98.82
28354;BME280;15603;50.878;8.036;2023-04-24T07:58:10;145514.59;;;9.52;98.69
28354;BME280;15603;50.878;8.036;2023-04-24T08:00:37;145507.34;;;9.49;100.00
28354;BME280;15603;50.878;8.036;2023-04-24T08:03:04;145502.50;;;9.47;100.00
28354;BME280;15603;50.878;8.036;2023-04-24T08:05:31;145494.00;;;9.43;100.00
28354;BME280;15603;50.878;8.036;2023-04-24T08:07:59;145490.34;;;9.42;100.00
28354;BME280;15603;50.878;8.036;2023-04-24T08:10:26;145502.50;;;9.47;100.00
28354;BME280;15603;50.878;8.036;2023-04-24T08:12:53;145412.63;;;9.09;100.00
28354;BME280;15603;50.878;8.036;2023-04-24T08:15:20;145381.06;;;8.96;100.00
28354;BME280;15603;50.878;8.036;2023-04-24T08:17:47;145356.78;;;8.86;100.00
28354;BME280;15603;50.878;8.036;2023-04-24T08:20:14;145350.69;;;8.83;100.00
28354;BME280;15603;50.878;8.036;2023-04-24T08:22:42;145349.47;;;8.82;100.00
28354;BME280;15603;50.878;8.036;2023-04-24T08:25:10;145344.63;;;8.80;100.00
28354;BME280;15603;50.878;8.036;2023-04-24T08:27:37;145286.34;;;8.56;100.00
28354;BME280;15603;50.878;8.036;2023-04-24T08:30:06;145325.22;;;8.72;100.00
28354;BME280;15603;50.878;8.036;2023-04-24T08:32:33;145310.66;;;8.66;100.00
28354;BME280;15603;50.878;8.036;2023-04-24T08:35:00;145360.38;;;8.87;100.00
28354;BME280;15603;50.878;8.036;2023-04-24T08:37:27;145398.06;;;9.03;100.00
28354;BME280;15603;50.878;8.036;2023-04-24T08:39:54;145371.34;;;8.92;100.00
28354;BME280;15603;50.878;8.036;2023-04-24T08:42:22;145347.09;;;8.81;100.00
28354;BME280;15603;50.878;8.036;2023-04-24T08:44:49;145407.75;;;9.07;100.00
28354;BME280;15603;50.878;8.036;2023-04-24T08:47:17;145398.06;;;9.03;100.00
28354;BME280;15603;50.878;8.036;2023-04-24T08:49:47;145355.53;;;8.85;100.00
28354;BME280;15603;50.878;8.036;2023-04-24T08:52:15;145453.91;;;9.27;100.00
28354;BME280;15603;50.878;8.036;2023-04-24T08:54:42;145407.75;;;9.07;100.00
28354;BME280;15603;50.878;8.036;2023-04-24T08:57:14;145429.63;;;9.16;100.00
28354;BME280;15603;50.878;8.036;2023-04-24T08:59:41;145388.34;;;8.99;100.00
28354;BME280;15603;50.878;8.036;2023-04-24T09:02:10;145314.25;;;8.68;100.00
28354;BME280;15603;50.878;8.036;2023-04-24T09:04:40;145263.31;;;8.46;100.00
28354;BME280;15603;50.878;8.036;2023-04-24T09:07:09;145296.06;;;8.60;100.00
28354;BME280;15603;50.878;8.036;2023-04-24T09:09:38;145303.38;;;8.63;100.00
28354;BME280;15603;50.878;8.036;2023-04-24T09:12:05;145223.19;;;8.29;100.00
28354;BME280;15603;50.878;8.036;2023-04-24T09:14:33;145209.84;;;8.23;100.00
28354;BME280;15603;50.878;8.036;2023-04-24T09:17:00;145230.50;;;8.32;100.00
28354;BME280;15603;50.878;8.036;2023-04-24T09:19:27;145161.34;;;8.03;100.00
28354;BME280;15603;50.878;8.036;2023-04-24T09:21:54;145197.75;;;8.18;100.00
28354;BME280;15603;50.878;8.036;2023-04-24T09:24:22;145140.69;;;7.94;100.00
28354;BME280;15603;50.878;8.036;2023-04-24T09:26:58;145064.28;;;7.62;100.00
28354;BME280;15603;50.878;8.036;2023-04-24T09:29:25;145052.16;;;7.57;100.00
28354;BME280;15603;50.878;8.036;2023-04-24T09:31:52;144961.22;;;7.18;100.00
28354;BME280;15603;50.878;8.036;2023-04-24T09:34:24;144947.88;;;7.13;100.00
28354;BME280;15603;50.878;8.036;2023-04-24T09:36:53;144947.88;;;7.13;100.00
28354;BME280;15603;50.878;8.036;2023-04-24T09:39:20;145038.81;;;7.51;100.00
28354;BME280;15603;50.878;8.036;2023-04-24T09:41:54;145047.31;;;7.55;100.00
28354;BME280;15603;50.878;8.036;2023-04-24T09:44:27;144980.59;;;7.26;100.00
28354;BME280;15603;50.878;8.036;2023-04-24T09:46:58;144984.25;;;7.28;100.00
28354;BME280;15603;50.878;8.036;2023-04-24T09:49:27;144895.72;;;6.91;100.00
28354;BME280;15603;50.878;8.036;2023-04-24T09:52:10;144923.59;;;7.02;100.00
28354;BME280;15603;50.878;8.036;2023-04-24T09:54:38;144859.34;;;6.75;100.00
28354;BME280;15603;50.878;8.036;2023-04-24T09:57:07;144823.00;;;6.60;100.00
28354;BME280;15603;50.878;8.036;2023-04-24T09:59:34;144810.91;;;6.55;100.00
28354;BME280;15603;50.878;8.036;2023-04-24T10:02:16;144812.09;;;6.55;100.00
28354;BME280;15603;50.878;8.036;2023-04-24T10:04:54;144808.47;;;6.54;100.00
28354;BME280;15603;50.878;8.036;2023-04-24T10:07:25;144784.25;;;6.43;100.00
28354;BME280;15603;50.878;8.036;2023-04-24T10:09:53;144776.94;;;6.40;100.00
28354;BME280;15603;50.878;8.036;2023-04-24T10:12:21;144762.41;;;6.34;100.00
28354;BME280;15603;50.878;8.036;2023-04-24T10:14:49;144779.41;;;6.41;100.00
28354;BME280;15603;50.878;8.036;2023-04-24T10:17:17;144825.44;;;6.61;100.00
28354;BME280;15603;50.878;8.036;2023-04-24T10:19:45;144764.88;;;6.35;100.00
28354;BME280;15603;50.878;8.036;2023-04-24T10:22:13;144780.59;;;6.42;100.00
28354;BME280;15603;50.878;8.036;2023-04-24T10:24:43;144738.19;;;6.24;100.00
28354;BME280;15603;50.878;8.036;2023-04-24T10:27:10;144864.22;;;6.77;100.00
28354;BME280;15603;50.878;8.036;2023-04-24T10:29:40;144859.34;;;6.75;100.00
28354;BME280;15603;50.878;8.036;2023-04-24T10:32:07;144883.63;;;6.85;100.00
28354;BME280;15603;50.878;8.036;2023-04-24T10:34:36;144893.31;;;6.90;100.00
28354;BME280;15603;50.878;8.036;2023-04-24T10:37:03;144934.53;;;7.07;100.00
28354;BME280;15603;50.878;8.036;2023-04-24T10:39:30;144963.63;;;7.19;100.00
28354;BME280;15603;50.878;8.036;2023-04-24T10:42:00;144944.22;;;7.11;100.00
28354;BME280;15603;50.878;8.036;2023-04-24T10:44:35;145008.50;;;7.38;100.00
28354;BME280;15603;50.878;8.036;2023-04-24T10:47:03;145009.69;;;7.39;100.00
28354;BME280;15603;50.878;8.036;2023-04-24T10:49:31;145058.22;;;7.59;100.00
28354;BME280;15603;50.878;8.036;2023-04-24T10:52:03;145000.00;;;7.35;100.00
28354;BME280;15603;50.878;8.036;2023-04-24T10:54:42;144970.91;;;7.22;100.00
28354;BME280;15603;50.878;8.036;2023-04-24T10:59:47;145030.34;;;7.47;100.00
28354;BME280;15603;50.878;8.036;2023-04-24T11:02:15;145080.06;;;7.69;100.00
28354;BME280;15603;50.878;8.036;2023-04-24T11:04:43;145148.00;;;7.97;100.00
28354;BME280;15603;50.878;8.036;2023-04-24T11:07:12;145165.00;;;8.04;100.00
28354;BME280;15603;50.878;8.036;2023-04-24T11:09:41;145109.16;;;7.81;100.00
28354;BME280;15603;50.878;8.036;2023-04-24T11:12:11;145146.78;;;7.97;100.00
28354;BME280;15603;50.878;8.036;2023-04-24T11:17:36;145251.09;;;8.41;100.00
28354;BME280;15603;50.878;8.036;2023-04-24T11:20:07;145269.34;;;8.49;100.00
28354;BME280;15603;50.878;8.036;2023-04-24T11:22:54;145232.91;;;8.33;100.00
28354;BME280;15603;50.878;8.036;2023-04-24T11:25:22;145189.25;;;8.15;100.00
28354;BME280;15603;50.878;8.036;2023-04-24T11:27:50;145286.34;;;8.56;100.00
28354;BME280;15603;50.878;8.036;2023-04-24T11:30:30;145305.78;;;8.64;100.00
28354;BME280;15603;50.878;8.036;2023-04-24T11:33:03;145331.28;;;8.75;100.00
28354;BME280;15603;50.878;8.036;2023-04-24T11:35:35;145378.59;;;8.95;100.00
28354;BME280;15603;50.878;8.036;2023-04-24T11:38:04;145413.81;;;9.10;100.00
28354;BME280;15603;50.878;8.036;2023-04-24T11:40:36;145368.91;;;8.91;100.00
28354;BME280;15603;50.878;8.036;2023-04-24T11:43:04;145339.78;;;8.78;100.00
28354;BME280;15603;50.878;8.036;2023-04-24T11:45:33;145405.31;;;9.06;100.00
28354;BME280;15603;50.878;8.036;2023-04-24T11:48:02;145430.84;;;9.17;100.00
28354;BME280;15603;50.878;8.036;2023-04-24T11:50:30;145366.50;;;8.90;100.00
28354;BME280;15603;50.878;8.036;2023-04-24T11:52:57;145446.59;;;9.23;100.00
28354;BME280;15603;50.878;8.036;2023-04-24T11:55:26;145449.03;;;9.24;100.00
28354;BME280;15603;50.878;8.036;2023-04-24T11:57:58;145410.16;;;9.08;100.00
28354;BME280;15603;50.878;8.036;2023-04-24T12:00:30;145427.19;;;9.15;100.00
28354;BME280;15603;50.878;8.036;2023-04-24T12:03:08;145315.50;;;8.68;100.00
28354;BME280;15603;50.878;8.036;2023-04-24T12:05:37;145361.63;;;8.88;100.00
28354;BME280;15603;50.878;8.036;2023-04-24T12:08:04;145257.25;;;8.43;100.00
28354;BME280;15603;50.878;8.036;2023-04-24T12:10:32;145308.22;;;8.65;100.00
28354;BME280;15603;50.878;8.036;2023-04-24T12:13:00;145377.41;;;8.94;100.00
28354;BME280;15603;50.878;8.036;2023-04-24T12:15:27;145383.50;;;8.97;100.00
28354;BME280;15603;50.878;8.036;2023-04-24T12:17:55;145303.38;;;8.63;100.00
28354;BME280;15603;50.878;8.036;2023-04-24T12:20:28;145225.66;;;8.30;100.00
28354;BME280;15603;50.878;8.036;2023-04-24T12:22:57;145364.03;;;8.89;100.00
28354;BME280;15603;50.878;8.036;2023-04-24T12:25:27;145377.41;;;8.94;100.00
28354;BME280;15603;50.878;8.036;2023-04-24T12:28:09;145390.75;;;9.00;100.00
28354;BME280;15603;50.878;8.036;2023-04-24T12:30:42;145412.63;;;9.09;100.00
28354;BME280;15603;50.878;8.036;2023-04-24T12:33:12;145322.78;;;8.71;100.00
28354;BME280;15603;50.878;8.036;2023-04-24T12:35:40;145400.47;;;9.04;100.00
28354;BME280;15603;50.878;8.036;2023-04-24T12:38:15;145517.06;;;9.53;100.00
28354;BME280;15603;50.878;8.036;2023-04-24T12:40:43;145439.34;;;9.20;100.00
28354;BME280;15603;50.878;8.036;2023-04-24T12:43:17;145416.28;;;9.11;100.00
28354;BME280;15603;50.878;8.036;2023-04-24T12:45:45;145470.91;;;9.34;100.00
28354;BME280;15603;50.878;8.036;2023-04-24T12:48:13;145453.91;;;9.27;100.00
28354;BME280;15603;50.878;8.036;2023-04-24T12:50:41;145399.25;;;9.03;100.00
28354;BME280;15603;50.878;8.036;2023-04-24T12:53:12;145438.13;;;9.20;100.00
28354;BME280;15603;50.878;8.036;2023-04-24T12:55:39;145438.13;;;9.20;100.00
28354;BME280;15603;50.878;8.036;2023-04-24T12:58:07;145429.63;;;9.16;100.00
28354;BME280;15603;50.878;8.036;2023-04-24T13:00:34;145298.50;;;8.61;100.00
28354;BME280;15603;50.878;8.036;2023-04-24T13:03:01;145331.28;;;8.75;100.00
28354;BME280;15603;50.878;8.036;2023-04-24T13:05:29;145393.22;;;9.01;100.00